Time;durP1;ratioP1;P1;durP2;ratioP2;P2;SDS_P1;SDS_P2;PMS_P1;PMS_P2;Temp;Humidity;BMP_temperature;BMP_pressure;BME280_temperature;BME280_humidity;BME280_pressure;Samples;Min_cycle;Max_cycle;Signal;HPM_P1;HPM_P2
2023/04/04 00:00:35;;;;;;;2.17;1.55;;;1.90;76.70;;;;;;5089612;28;20206;-67
2023/04/04 00:03:01;;;;;;;4.25;1.67;;;1.90;75.90;;;;;;5088117;28;21100;-68
2023/04/04 00:05:27;;;;;;;4.80;1.80;;;1.80;75.60;;;;;;5089571;28;20265;-67
2023/04/04 00:07:52;;;;;;;1.63;1.43;;;1.90;75.60;;;;;;5071136;28;20195;-67
2023/04/04 00:10:18;;;;;;;2.70;1.70;;;1.90;75.30;;;;;;5089394;28;20521;-68
2023/04/04 00:12:44;;;;;;;4.20;1.43;;;1.90;75.70;;;;;;5089236;28;20221;-67
2023/04/04 00:15:10;;;;;;;2.77;1.30;;;1.80;75.00;;;;;;5089114;28;20706;-67
2023/04/04 00:17:36;;;;;;;1.98;1.30;;;1.80;75.00;;;;;;5089047;28;20282;-67
2023/04/04 00:20:03;;;;;;;5.53;1.70;;;1.70;75.60;;;;;;5088783;28;20299;-67
2023/04/04 00:22:28;;;;;;;1.33;1.23;;;1.70;75.60;;;;;;5087486;28;20309;-67
2023/04/04 00:24:54;;;;;;;5.53;1.50;;;1.70;76.20;;;;;;5087499;28;20246;-67
2023/04/04 00:27:20;;;;;;;2.27;1.50;;;1.70;76.20;;;;;;5088870;28;20244;-68
2023/04/04 00:29:45;;;;;;;3.00;1.63;;;1.70;76.20;;;;;;5088393;28;20176;-67
2023/04/04 00:32:11;;;;;;;2.30;1.30;;;1.60;76.00;;;;;;5088663;28;20436;-68
2023/04/04 00:34:37;;;;;;;2.47;1.47;;;1.60;76.20;;;;;;5088309;28;20253;-68
2023/04/04 00:37:02;;;;;;;1.93;1.70;;;1.50;76.50;;;;;;5088418;28;20230;-68
2023/04/04 00:39:28;;;;;;;2.90;1.47;;;1.40;76.80;;;;;;5088401;28;20216;-68
2023/04/04 00:41:53;;;;;;;3.00;1.70;;;1.40;76.70;;;;;;5088254;28;20194;-68
2023/04/04 00:44:19;;;;;;;1.90;1.63;;;1.30;76.70;;;;;;5086562;28;20187;-68
2023/04/04 00:46:45;;;;;;;2.53;1.77;;;1.40;77.20;;;;;;5088446;28;20235;-68
2023/04/04 00:49:11;;;;;;;2.27;1.50;;;1.40;77.60;;;;;;5087366;28;20686;-68
2023/04/04 00:51:36;;;;;;;1.67;1.57;;;1.40;78.10;;;;;;5087979;28;20198;-68
2023/04/04 00:54:02;;;;;;;3.43;1.40;;;1.30;78.30;;;;;;5088040;28;20420;-68
2023/04/04 00:56:30;;;;;;;1.77;1.50;;;1.30;78.40;;;;;;5086339;28;20187;-68
2023/04/04 00:58:56;;;;;;;4.68;1.73;;;1.30;78.50;;;;;;5087874;28;20273;-68
2023/04/04 01:01:24;;;;;;;1.47;1.37;;;1.30;79.30;;;;;;5087813;28;20632;-68
2023/04/04 01:03:51;;;;;;;3.33;1.60;;;1.20;79.60;;;;;;5086594;28;20489;-68
2023/04/04 01:06:16;;;;;;;3.50;1.70;;;1.20;79.90;;;;;;5088139;28;20180;-68
2023/04/04 01:08:42;;;;;;;2.50;1.40;;;1.20;80.50;;;;;;5087932;28;20211;-68
2023/04/04 01:11:09;;;;;;;6.68;1.80;;;1.20;81.20;;;;;;5087723;28;20746;-67
2023/04/04 01:13:35;;;;;;;1.80;1.50;;;1.20;81.50;;;;;;5086136;28;20243;-68
2023/04/04 01:16:01;;;;;;;3.47;1.45;;;1.10;81.60;;;;;;5087698;28;20190;-68
2023/04/04 01:18:28;;;;;;;1.43;1.33;;;1.10;81.00;;;;;;5087657;28;20189;-68
2023/04/04 01:21:01;;;;;;;3.53;1.83;;;1.10;82.40;;;;;;5087460;28;20637;-68
2023/04/04 01:23:41;;;;;;;1.52;1.42;;;1.10;82.50;;;;;;5087811;28;20180;-68
2023/04/04 01:26:06;;;;;;;3.08;1.23;;;1.20;82.50;;;;;;5087534;28;20216;-68
2023/04/04 01:28:32;;;;;;;2.10;1.40;;;1.10;82.70;;;;;;5086009;28;20182;-68
2023/04/04 01:31:01;;;;;;;2.50;1.50;;;1.20;83.10;;;;;;5087386;28;20191;-68
2023/04/04 01:33:42;;;;;;;3.83;1.80;;;1.10;82.30;;;;;;5085947;28;21050;-68
2023/04/04 01:36:20;;;;;;;1.75;1.30;;;1.00;81.70;;;;;;5087402;28;20196;-68
2023/04/04 01:38:46;;;;;;;5.32;1.63;;;1.10;82.00;;;;;;5087099;28;20206;-68
2023/04/04 01:41:13;;;;;;;2.23;1.60;;;1.00;81.70;;;;;;5087135;28;20220;-67
2023/04/04 01:43:39;;;;;;;2.75;1.60;;;1.00;81.50;;;;;;5087243;28;20533;-67
2023/04/04 01:46:05;;;;;;;5.57;1.90;;;1.00;82.80;;;;;;5085910;28;20190;-68
2023/04/04 01:48:31;;;;;;;7.25;1.55;;;1.10;83.00;;;;;;5087328;28;20912;-68
2023/04/04 01:50:57;;;;;;;2.23;1.30;;;1.00;83.40;;;;;;5085955;28;20278;-68
2023/04/04 01:53:22;;;;;;;2.47;2.13;;;1.10;82.40;;;;;;5087118;28;20209;-67
2023/04/04 01:55:48;;;;;;;3.80;2.10;;;1.10;81.70;;;;;;5087342;28;20514;-68
2023/04/04 01:58:14;;;;;;;5.45;1.40;;;1.10;82.90;;;;;;5087197;28;20183;-67
2023/04/04 02:00:40;;;;;;;2.13;1.70;;;1.10;83.90;;;;;;5089046;28;20246;-67
2023/04/04 02:03:06;;;;;;;3.47;1.83;;;1.10;83.50;;;;;;5091272;28;20920;-67
2023/04/04 02:05:31;;;;;;;2.30;1.53;;;1.00;82.00;;;;;;5091409;28;20542;-68
2023/04/04 02:07:57;;;;;;;5.23;1.20;;;1.10;82.30;;;;;;5089699;28;20501;-67
2023/04/04 02:10:23;;;;;;;2.30;1.20;;;1.00;82.80;;;;;;5091483;28;20654;-67
2023/04/04 02:12:51;;;;;;;3.03;1.60;;;1.10;82.60;;;;;;5091135;28;20267;-67
2023/04/04 02:15:18;;;;;;;2.40;1.63;;;1.00;83.00;;;;;;5091178;28;20678;-67
2023/04/04 02:17:47;;;;;;;2.47;1.40;;;1.10;83.20;;;;;;5091220;28;20187;-67
2023/04/04 02:20:13;;;;;;;2.65;1.75;;;1.10;83.30;;;;;;5090939;28;20259;-67
2023/04/04 02:22:39;;;;;;;1.37;1.20;;;1.20;83.50;;;;;;5091080;28;20674;-67
2023/04/04 02:25:05;;;;;;;1.93;1.20;;;1.10;83.40;;;;;;5091302;28;20443;-67
2023/04/04 02:27:31;;;;;;;5.35;1.50;;;1.10;84.10;;;;;;5091268;28;20180;-67
2023/04/04 02:29:57;;;;;;;4.33;1.40;;;0.90;84.10;;;;;;5089878;28;20190;-67
2023/04/04 02:32:23;;;;;;;1.93;1.40;;;1.10;83.90;;;;;;5091245;28;20956;-67
2023/04/04 02:34:48;;;;;;;3.93;1.47;;;1.10;84.10;;;;;;5091469;28;20187;-67
2023/04/04 02:37:14;;;;;;;3.60;1.83;;;1.10;85.40;;;;;;5090701;28;20493;-67
2023/04/04 02:39:39;;;;;;;2.83;1.60;;;1.00;84.90;;;;;;5090841;28;20218;-67
2023/04/04 02:42:05;;;;;;;1.67;1.47;;;1.00;86.20;;;;;;5090738;28;20246;-67
2023/04/04 02:44:31;;;;;;;4.50;1.73;;;1.00;85.80;;;;;;5089179;28;20539;-67
2023/04/04 02:46:56;;;;;;;1.93;1.83;;;0.90;85.30;;;;;;5090814;28;20263;-67
2023/04/04 02:49:22;;;;;;;7.03;1.60;;;0.90;86.40;;;;;;5090638;28;20609;-67
2023/04/04 02:51:47;;;;;;;4.53;1.63;;;1.00;86.30;;;;;;5090379;28;20210;-67
2023/04/04 02:54:13;;;;;;;3.27;1.80;;;1.00;87.10;;;;;;5089145;28;20239;-67
2023/04/04 02:56:38;;;;;;;1.73;1.27;;;1.00;88.10;;;;;;5088874;28;20190;-67
2023/04/04 02:59:04;;;;;;;3.93;1.60;;;1.00;88.10;;;;;;5090559;28;20199;-68
2023/04/04 03:01:30;;;;;;;6.50;1.60;;;0.90;86.30;;;;;;5090032;28;20636;-68
2023/04/04 03:03:55;;;;;;;3.00;1.97;;;0.90;86.30;;;;;;5090476;28;20186;-68
2023/04/04 03:06:21;;;;;;;4.03;2.27;;;0.90;87.80;;;;;;5090108;28;20695;-68
2023/04/04 03:08:47;;;;;;;3.93;2.33;;;0.90;87.20;;;;;;5090258;28;20647;-68
2023/04/04 03:11:17;;;;;;;2.92;1.40;;;0.90;88.60;;;;;;5089554;28;20210;-68
2023/04/04 03:13:42;;;;;;;3.58;1.80;;;0.90;88.70;;;;;;5089598;28;20235;-67
2023/04/04 03:16:09;;;;;;;1.60;1.50;;;0.80;89.90;;;;;;5088715;28;20186;-68
2023/04/04 03:18:35;;;;;;;5.40;2.20;;;0.80;89.50;;;;;;5089899;28;20190;-68
2023/04/04 03:21:00;;;;;;;5.60;2.93;;;0.80;89.30;;;;;;5088006;28;20210;-68
2023/04/04 03:23:26;;;;;;;4.30;2.13;;;0.80;90.10;;;;;;5089775;28;20737;-67
2023/04/04 03:25:53;;;;;;;5.60;1.90;;;0.80;90.20;;;;;;5088422;28;20224;-68
2023/04/04 03:28:19;;;;;;;3.67;1.60;;;0.90;89.20;;;;;;5089629;28;20216;-67
2023/04/04 03:30:45;;;;;;;1.50;1.40;;;0.80;89.30;;;;;;5089709;28;20208;-68
2023/04/04 03:33:11;;;;;;;2.37;1.37;;;0.80;89.40;;;;;;5088007;28;20218;-68
2023/04/04 03:35:39;;;;;;;2.60;1.70;;;0.80;89.80;;;;;;5089543;28;20516;-68
2023/04/04 03:38:06;;;;;;;3.17;2.05;;;0.80;89.70;;;;;;5089293;28;20210;-68
2023/04/04 03:40:31;;;;;;;6.60;2.30;;;0.80;90.10;;;;;;5089594;28;20223;-68
2023/04/04 03:42:57;;;;;;;6.60;1.70;;;0.70;90.50;;;;;;5087639;28;20198;-67
2023/04/04 03:45:23;;;;;;;5.05;1.58;;;0.70;89.90;;;;;;5089322;28;20663;-67
2023/04/04 03:47:49;;;;;;;6.30;2.23;;;0.70;89.50;;;;;;5089435;28;20187;-67
2023/04/04 03:50:15;;;;;;;1.83;1.70;;;0.70;90.30;;;;;;5089513;28;20428;-67
2023/04/04 03:52:41;;;;;;;4.10;2.40;;;0.70;90.20;;;;;;5089177;28;20202;-67
2023/04/04 03:55:07;;;;;;;2.60;1.77;;;0.70;89.90;;;;;;5089472;28;20483;-67
2023/04/04 03:57:33;;;;;;;3.20;2.15;;;0.70;90.20;;;;;;5089018;28;20194;-68
2023/04/04 03:59:58;;;;;;;3.83;2.07;;;0.60;91.20;;;;;;5088964;28;20667;-67
2023/04/04 04:02:24;;;;;;;3.53;1.70;;;0.40;91.40;;;;;;5088845;28;20742;-67
2023/04/04 04:04:50;;;;;;;3.70;1.97;;;0.40;91.60;;;;;;5089248;28;20283;-67
2023/04/04 04:07:15;;;;;;;5.30;2.93;;;0.30;92.60;;;;;;5087663;28;20181;-67
2023/04/04 04:09:41;;;;;;;2.97;2.00;;;0.20;94.20;;;;;;5089018;28;20176;-67
2023/04/04 04:12:07;;;;;;;3.50;1.80;;;0.10;93.60;;;;;;5088901;28;20199;-68
2023/04/04 04:14:32;;;;;;;2.60;2.33;;;0.10;94.70;;;;;;5089002;28;20259;-67
2023/04/04 04:16:58;;;;;;;2.43;1.77;;;0.10;95.10;;;;;;5088871;28;20545;-68
2023/04/04 04:19:23;;;;;;;2.57;2.00;;;0.00;95.10;;;;;;5088926;28;20187;-68
2023/04/04 04:21:49;;;;;;;3.20;1.90;;;0.00;95.20;;;;;;5088536;28;20241;-68
2023/04/04 04:24:15;;;;;;;8.63;2.30;;;0.00;95.50;;;;;;5089000;28;20247;-68
2023/04/04 04:26:41;;;;;;;3.10;2.80;;;-0.10;96.40;;;;;;5088485;28;20500;-67
2023/04/04 04:29:07;;;;;;;3.22;2.22;;;-0.10;97.40;;;;;;5088664;28;20182;-67
2023/04/04 04:31:33;;;;;;;5.27;2.87;;;-0.20;96.80;;;;;;5088127;28;20210;-67
2023/04/04 04:33:58;;;;;;;5.67;2.73;;;-0.20;97.60;;;;;;5087092;28;20278;-67
2023/04/04 04:36:24;;;;;;;3.90;2.43;;;-0.20;97.90;;;;;;5088171;28;20193;-67
2023/04/04 04:38:49;;;;;;;6.73;2.90;;;-0.20;98.80;;;;;;5088129;28;20204;-67
2023/04/04 04:41:15;;;;;;;3.57;2.27;;;-0.30;98.30;;;;;;5088076;28;20296;-68
2023/04/04 04:43:41;;;;;;;2.73;1.97;;;-0.30;98.30;;;;;;5088341;28;20288;-67
2023/04/04 04:46:09;;;;;;;4.10;2.27;;;-0.30;99.40;;;;;;5088280;28;20186;-68
2023/04/04 04:48:35;;;;;;;2.53;2.20;;;-0.30;98.70;;;;;;5086649;28;20190;-67
2023/04/04 04:51:00;;;;;;;6.60;2.77;;;-0.30;99.20;;;;;;5088076;28;20195;-67
2023/04/04 04:53:26;;;;;;;3.23;2.93;;;-0.30;99.70;;;;;;5086739;28;20182;-67
2023/04/04 04:55:52;;;;;;;7.10;3.83;;;-0.40;99.70;;;;;;5087962;28;20604;-69
2023/04/04 04:58:21;;;;;;;7.83;3.40;;;-0.40;99.90;;;;;;5088412;28;20182;-69
2023/04/04 05:00:46;;;;;;;4.03;3.05;;;-0.40;99.70;;;;;;5088005;28;20206;-69
2023/04/04 05:03:12;;;;;;;4.83;3.30;;;-0.30;99.20;;;;;;5086460;28;20206;-69
2023/04/04 05:05:38;;;;;;;3.07;2.57;;;-0.30;97.50;;;;;;5087918;28;20182;-69
2023/04/04 05:08:04;;;;;;;3.87;3.10;;;-0.20;97.80;;;;;;5087946;28;20255;-67
2023/04/04 05:10:30;;;;;;;4.85;3.50;;;-0.20;97.30;;;;;;5087912;28;20273;-68
2023/04/04 05:12:56;;;;;;;9.27;4.25;;;-0.20;99.20;;;;;;5088058;28;20206;-69
2023/04/04 05:15:22;;;;;;;9.10;3.97;;;-0.30;99.80;;;;;;5086239;28;20213;-68
2023/04/04 05:17:47;;;;;;;9.53;5.07;;;-0.30;99.00;;;;;;5086378;28;20750;-69
2023/04/04 05:20:13;;;;;;;6.40;3.63;;;-0.40;99.90;;;;;;5087630;28;20876;-68
2023/04/04 05:22:43;;;;;;;7.47;4.07;;;-0.30;97.60;;;;;;5086280;28;20231;-70
2023/04/04 05:25:10;;;;;;;4.80;3.65;;;-0.30;98.50;;;;;;5087812;28;20175;-68
2023/04/04 05:27:35;;;;;;;7.68;4.00;;;-0.30;97.90;;;;;;5087729;28;20564;-68
2023/04/04 05:30:01;;;;;;;6.37;4.10;;;-0.20;97.90;;;;;;5087746;28;20182;-68
2023/04/04 05:32:26;;;;;;;8.90;5.00;;;-0.30;99.20;;;;;;5086185;28;20359;-69
2023/04/04 05:34:52;;;;;;;5.83;4.63;;;-0.30;99.90;;;;;;5085726;28;20190;-68
2023/04/04 05:37:17;;;;;;;5.63;4.20;;;-0.40;99.90;;;;;;5087775;28;20200;-68
2023/04/04 05:39:43;;;;;;;6.87;4.03;;;-0.40;99.90;;;;;;5087597;28;20554;-68
2023/04/04 05:42:09;;;;;;;6.27;4.90;;;-0.30;99.90;;;;;;5087678;28;20206;-68
2023/04/04 05:44:36;;;;;;;8.43;4.60;;;-0.40;99.90;;;;;;5087371;28;20186;-68
2023/04/04 05:47:02;;;;;;;9.93;3.88;;;-0.40;99.90;;;;;;5087635;28;20902;-68
2023/04/04 05:49:27;;;;;;;8.60;4.80;;;-0.30;99.90;;;;;;5087390;28;20265;-68
2023/04/04 05:51:55;;;;;;;5.20;2.93;;;-0.30;99.90;;;;;;5087316;28;20441;-69
2023/04/04 05:54:21;;;;;;;4.40;3.70;;;-0.10;99.40;;;;;;5085927;28;20197;-68
2023/04/04 05:56:47;;;;;;;6.40;4.60;;;0.00;99.80;;;;;;5086167;28;20190;-69
2023/04/04 05:59:13;;;;;;;11.13;5.07;;;0.10;98.90;;;;;;5087468;28;20182;-68
2023/04/04 06:01:39;;;;;;;5.27;4.67;;;0.20;98.10;;;;;;5087477;28;20222;-68
2023/04/04 06:04:05;;;;;;;18.57;4.80;;;0.30;96.70;;;;;;5087579;28;20182;-69
2023/04/04 06:06:32;;;;;;;15.70;3.40;;;0.40;96.40;;;;;;5069054;28;20432;-68
2023/04/04 06:08:57;;;;;;;4.43;3.08;;;0.70;93.20;;;;;;5087748;28;20249;-68
2023/04/04 06:11:23;;;;;;;7.70;4.20;;;0.90;91.90;;;;;;5087367;28;20244;-68
2023/04/04 06:13:50;;;;;;;4.80;3.30;;;1.10;92.60;;;;;;5088033;28;20180;-69
2023/04/04 06:16:15;;;;;;;6.05;2.80;;;1.30;92.40;;;;;;5086449;28;20186;-68
2023/04/04 06:18:41;;;;;;;5.70;3.40;;;1.60;92.40;;;;;;5087795;28;20209;-68
2023/04/04 06:21:07;;;;;;;4.77;2.23;;;1.90;90.90;;;;;;5087552;28;20621;-68
2023/04/04 06:23:32;;;;;;;4.40;2.47;;;2.20;88.00;;;;;;5087574;28;20187;-68
2023/04/04 06:25:58;;;;;;;1.90;1.77;;;2.50;82.40;;;;;;5086116;28;20172;-67
2023/04/04 06:28:24;;;;;;;12.13;2.50;;;3.10;83.70;;;;;;5087584;28;20306;-67
2023/04/04 06:30:49;;;;;;;6.47;2.33;;;3.40;85.00;;;;;;5087488;28;20556;-68
2023/04/04 06:33:15;;;;;;;2.23;2.03;;;3.70;86.40;;;;;;5087153;28;20216;-68
2023/04/04 06:35:41;;;;;;;5.60;3.10;;;3.70;81.10;;;;;;5087470;28;20189;-68
2023/04/04 06:38:07;;;;;;;7.43;2.90;;;4.10;83.40;;;;;;5087234;28;20446;-67
2023/04/04 06:40:33;;;;;;;4.47;2.40;;;4.10;77.10;;;;;;5087159;28;20216;-67
2023/04/04 06:42:58;;;;;;;3.90;2.13;;;4.10;73.20;;;;;;5068627;28;20587;-67
2023/04/04 06:45:26;;;;;;;4.00;2.23;;;4.30;73.50;;;;;;5087446;28;20178;-67
2023/04/04 06:47:53;;;;;;;8.18;2.22;;;4.60;74.80;;;;;;5088092;28;20181;-67
2023/04/04 06:50:20;;;;;;;3.00;1.90;;;4.80;75.40;;;;;;5091032;28;20557;-67
2023/04/04 06:52:46;;;;;;;8.70;1.90;;;4.70;73.90;;;;;;5090782;28;20438;-67
2023/04/04 06:55:12;;;;;;;3.03;1.80;;;4.90;73.80;;;;;;5089408;28;20431;-67
2023/04/04 06:57:38;;;;;;;3.67;1.87;;;5.10;69.00;;;;;;5091129;28;20231;-67
2023/04/04 07:00:04;;;;;;;2.93;1.90;;;5.30;70.10;;;;;;5091077;28;21046;-67
2023/04/04 07:02:30;;;;;;;5.60;1.80;;;5.20;67.10;;;;;;5090880;28;20432;-68
2023/04/04 07:04:56;;;;;;;6.23;2.57;;;5.20;68.30;;;;;;5090937;28;20183;-68
2023/04/04 07:07:21;;;;;;;4.30;2.27;;;5.20;69.00;;;;;;5090917;28;20186;-67
2023/04/04 07:09:47;;;;;;;3.83;2.00;;;5.10;68.30;;;;;;5090675;28;20183;-67
2023/04/04 07:12:13;;;;;;;3.43;2.20;;;5.10;68.30;;;;;;5090426;28;20198;-67
2023/04/04 07:14:38;;;;;;;6.97;2.40;;;5.30;68.60;;;;;;5090459;28;20206;-68
2023/04/04 07:17:04;;;;;;;4.63;2.00;;;4.70;66.60;;;;;;5090331;28;20257;-68
2023/04/04 07:19:30;;;;;;;7.87;1.93;;;4.50;67.00;;;;;;5088951;28;20178;-67
2023/04/04 07:21:55;;;;;;;2.63;1.97;;;4.70;69.20;;;;;;5088764;28;20304;-67
2023/04/04 07:24:21;;;;;;;6.40;2.23;;;4.70;67.80;;;;;;5090074;28;20178;-67
2023/04/04 07:26:47;;;;;;;3.47;1.90;;;4.70;68.80;;;;;;5089912;28;20239;-67
2023/04/04 07:29:13;;;;;;;3.80;1.80;;;4.60;67.90;;;;;;5088586;28;20803;-67
2023/04/04 07:31:38;;;;;;;3.43;1.80;;;4.60;67.50;;;;;;5089622;28;20244;-68
2023/04/04 07:34:04;;;;;;;2.77;1.90;;;4.30;68.40;;;;;;5089661;28;20424;-68
2023/04/04 07:36:30;;;;;;;2.77;1.93;;;4.30;67.00;;;;;;5087937;28;20188;-68
2023/04/04 07:38:56;;;;;;;5.90;2.73;;;4.40;70.40;;;;;;5088031;28;20207;-69
2023/04/04 07:41:22;;;;;;;5.75;2.30;;;4.70;70.20;;;;;;5087646;28;20316;-66
2023/04/04 07:43:48;;;;;;;4.77;2.50;;;4.90;67.40;;;;;;5089433;28;20273;-68
2023/04/04 07:46:14;;;;;;;2.73;1.97;;;4.90;68.40;;;;;;5089313;28;20188;-68
2023/04/04 07:48:40;;;;;;;4.80;2.20;;;5.40;67.10;;;;;;5089402;28;20430;-68
2023/04/04 07:51:06;;;;;;;2.53;2.20;;;5.30;66.90;;;;;;5071030;28;20431;-68
2023/04/04 07:53:32;;;;;;;4.72;2.30;;;4.90;65.30;;;;;;5089156;28;20604;-68
2023/04/04 07:55:57;;;;;;;4.93;1.90;;;5.00;65.40;;;;;;5087874;28;20193;-69
2023/04/04 07:58:23;;;;;;;2.30;2.00;;;5.20;66.20;;;;;;5088904;28;20186;-68
2023/04/04 08:00:48;;;;;;;2.90;1.63;;;5.60;66.10;;;;;;5087661;28;20206;-68
2023/04/04 08:03:16;;;;;;;3.60;1.63;;;5.20;64.70;;;;;;5089063;28;20588;-68
2023/04/04 08:05:41;;;;;;;3.57;1.93;;;5.20;65.10;;;;;;5087592;28;20213;-68
2023/04/04 08:08:07;;;;;;;3.13;2.17;;;5.00;64.20;;;;;;5089164;28;20505;-69
2023/04/04 08:10:33;;;;;;;15.73;2.90;;;5.20;64.70;;;;;;5089060;28;20224;-69
2023/04/04 08:12:58;;;;;;;3.27;1.80;;;5.50;65.90;;;;;;5089135;28;20198;-69
2023/04/04 08:15:24;;;;;;;4.10;2.27;;;5.80;65.00;;;;;;5087461;28;20185;-68
2023/04/04 08:17:50;;;;;;;6.00;2.00;;;5.90;64.70;;;;;;5089152;28;20280;-68
2023/04/04 08:20:15;;;;;;;4.50;2.30;;;6.10;65.50;;;;;;5089043;28;20583;-68
2023/04/04 08:22:41;;;;;;;2.60;2.13;;;6.30;62.70;;;;;;5089215;28;21013;-68
2023/04/04 08:25:08;;;;;;;4.30;2.20;;;6.50;63.00;;;;;;5087758;28;20208;-69
2023/04/04 08:27:34;;;;;;;2.67;2.20;;;6.70;60.90;;;;;;5089222;28;20412;-68
2023/04/04 08:30:02;;;;;;;2.50;2.00;;;6.40;58.80;;;;;;5089162;28;20416;-69
2023/04/04 08:32:28;;;;;;;3.63;2.50;;;6.30;60.40;;;;;;5088992;28;20217;-69
2023/04/04 08:34:53;;;;;;;4.80;2.63;;;5.80;59.90;;;;;;5089018;28;20541;-69
2023/04/04 08:37:19;;;;;;;2.77;2.43;;;6.10;60.60;;;;;;5089079;28;20198;-68
2023/04/04 08:39:44;;;;;;;5.83;2.97;;;5.60;61.10;;;;;;5088976;28;20189;-66
2023/04/04 08:42:15;;;;;;;3.70;2.43;;;6.00;62.30;;;;;;5089712;28;20224;-67
2023/04/04 08:44:44;;;;;;;8.50;3.40;;;6.50;63.40;;;;;;5089736;28;20262;-68
2023/04/04 08:47:12;;;;;;;3.13;2.40;;;6.30;61.10;;;;;;5089533;28;20762;-68
2023/04/04 08:49:42;;;;;;;7.87;2.63;;;6.10;61.00;;;;;;5089326;28;20561;-68
2023/04/04 08:52:11;;;;;;;4.63;2.80;;;6.20;61.70;;;;;;5087787;28;20543;-69
2023/04/04 08:54:38;;;;;;;10.60;2.27;;;6.30;60.10;;;;;;5088915;28;20417;-68
2023/04/04 08:57:04;;;;;;;2.23;2.03;;;6.60;60.70;;;;;;5088812;28;20514;-68
2023/04/04 08:59:30;;;;;;;3.03;2.17;;;6.50;59.20;;;;;;5088611;28;20504;-68
2023/04/04 09:02:08;;;;;;;2.43;2.23;;;6.50;60.70;;;;;;5086779;28;20744;-68
2023/04/04 09:04:34;;;;;;;2.57;1.90;;;6.60;58.90;;;;;;5088307;28;20785;-68
2023/04/04 09:07:03;;;;;;;3.57;2.07;;;6.80;59.10;;;;;;5088293;28;20413;-68
2023/04/04 09:09:33;;;;;;;7.57;2.00;;;7.30;60.30;;;;;;5087729;28;20800;-68
2023/04/04 09:12:00;;;;;;;4.60;2.60;;;8.30;61.90;;;;;;5088040;28;20432;-68
2023/04/04 09:14:28;;;;;;;3.57;2.53;;;9.00;59.10;;;;;;5086610;28;20421;-68
2023/04/04 09:16:54;;;;;;;10.30;2.77;;;9.00;56.30;;;;;;5088074;28;20477;-68
2023/04/04 09:19:20;;;;;;;5.37;2.93;;;9.50;57.20;;;;;;5088016;28;20806;-67
2023/04/04 09:21:47;;;;;;;8.50;2.30;;;9.60;55.50;;;;;;5086313;28;20464;-69
2023/04/04 09:24:13;;;;;;;4.30;2.63;;;9.70;55.50;;;;;;5087624;28;20174;-68
2023/04/04 09:26:53;;;;;;;3.43;2.30;;;9.90;52.90;;;;;;5086417;28;20417;-68
2023/04/04 09:29:20;;;;;;;5.23;2.47;;;10.10;52.50;;;;;;5087439;28;20920;-66
2023/04/04 09:31:48;;;;;;;6.50;2.50;;;10.20;51.40;;;;;;5087451;28;20812;-69
2023/04/04 09:34:16;;;;;;;4.30;2.73;;;10.10;50.50;;;;;;5087743;28;20519;-69
2023/04/04 09:36:43;;;;;;;4.43;2.70;;;10.40;51.80;;;;;;5087392;28;20503;-69
2023/04/04 09:39:10;;;;;;;6.00;2.70;;;10.90;52.50;;;;;;5087375;28;20475;-69
2023/04/04 09:41:40;;;;;;;4.13;2.33;;;10.80;48.70;;;;;;5087119;28;20551;-68
2023/04/04 09:44:06;;;;;;;3.40;2.27;;;11.10;48.60;;;;;;5087389;28;20525;-68
2023/04/04 09:46:35;;;;;;;7.10;2.43;;;11.40;48.30;;;;;;5087502;28;21082;-68
2023/04/04 09:49:01;;;;;;;3.20;2.17;;;11.40;48.60;;;;;;5087364;28;20466;-68
2023/04/04 09:51:34;;;;;;;3.80;2.73;;;11.20;47.40;;;;;;5087280;28;20440;-68
2023/04/04 09:54:00;;;;;;;4.83;2.70;;;10.60;48.80;;;;;;5087308;28;20182;-68
2023/04/04 09:56:27;;;;;;;6.00;3.20;;;11.00;48.00;;;;;;5086095;28;20417;-67
2023/04/04 09:58:53;;;;;;;5.03;2.43;;;10.50;46.80;;;;;;5087255;28;20425;-68
2023/04/04 10:01:19;;;;;;;4.70;2.47;;;10.70;46.30;;;;;;5087303;28;20559;-68
2023/04/04 10:03:52;;;;;;;15.70;3.90;;;10.40;47.30;;;;;;5087095;28;20436;-67
2023/04/04 10:06:19;;;;;;;4.03;2.73;;;10.70;46.80;;;;;;5085612;28;20422;-68
2023/04/04 10:08:45;;;;;;;2.67;2.30;;;10.20;45.70;;;;;;5087085;28;20435;-68
2023/04/04 10:11:11;;;;;;;3.43;2.13;;;10.10;45.60;;;;;;5087089;28;20426;-68
2023/04/04 10:13:42;;;;;;;4.73;2.67;;;10.40;45.20;;;;;;5087398;28;21046;-68
2023/04/04 10:16:09;;;;;;;5.87;2.50;;;10.60;44.70;;;;;;5086118;28;20426;-68
2023/04/04 10:18:35;;;;;;;4.43;3.00;;;10.80;44.10;;;;;;5086011;28;20433;-68
2023/04/04 10:21:03;;;;;;;2.80;2.27;;;11.40;47.40;;;;;;5087782;28;20466;-68
2023/04/04 10:23:29;;;;;;;3.73;2.57;;;11.70;45.40;;;;;;5090796;28;20420;-68
2023/04/04 10:25:58;;;;;;;3.80;2.27;;;11.80;45.70;;;;;;5091010;28;20412;-68
2023/04/04 10:28:25;;;;;;;4.20;3.07;;;11.30;44.40;;;;;;5091348;28;20174;-68
2023/04/04 10:31:13;;;;;;;4.63;2.80;;;11.60;45.10;;;;;;5091123;28;20429;-67
2023/04/04 10:34:05;;;;;;;8.40;2.70;;;11.90;44.50;;;;;;5090648;28;20425;-68
2023/04/04 10:36:42;;;;;;;5.03;2.97;;;11.70;42.10;;;;;;5059199;28;21224;-68
2023/04/04 10:39:12;;;;;;;3.47;2.63;;;11.70;41.80;;;;;;5090812;28;20437;-67
2023/04/04 10:41:39;;;;;;;4.40;2.77;;;11.60;40.70;;;;;;5090371;28;20551;-67
2023/04/04 10:44:16;;;;;;;3.10;2.60;;;12.00;42.60;;;;;;5090861;28;20567;-67
2023/04/04 10:46:45;;;;;;;4.70;2.60;;;12.20;42.60;;;;;;5090640;28;20508;-67
2023/04/04 10:49:11;;;;;;;5.97;2.80;;;12.30;42.70;;;;;;5090510;28;20420;-67
2023/04/04 10:51:37;;;;;;;7.53;2.50;;;12.60;40.60;;;;;;5089074;28;20453;-67
2023/04/04 10:54:03;;;;;;;6.13;2.50;;;12.60;41.60;;;;;;5088891;28;20184;-68
2023/04/04 10:56:29;;;;;;;4.77;3.00;;;12.60;41.70;;;;;;5089021;28;20436;-67
2023/04/04 10:59:12;;;;;;;9.33;2.30;;;12.40;42.20;;;;;;5090587;28;21091;-68
2023/04/04 11:01:56;;;;;;;5.07;2.97;;;12.60;41.60;;;;;;5090340;28;20529;-68
2023/04/04 11:04:30;;;;;;;5.97;3.20;;;12.10;41.10;;;;;;5090305;28;20924;-68
2023/04/04 11:07:15;;;;;;;2.83;2.53;;;12.20;41.90;;;;;;5090534;28;20413;-68
2023/04/04 11:09:54;;;;;;;5.47;2.60;;;12.60;40.10;;;;;;5090178;28;20544;-67
2023/04/04 11:12:28;;;;;;;10.87;2.40;;;12.60;40.70;;;;;;5088382;28;20611;-67
2023/04/04 11:15:15;;;;;;;3.47;3.10;;;12.80;40.00;;;;;;5090164;28;20415;-67
2023/04/04 11:17:47;;;;;;;2.90;2.40;;;12.90;39.10;;;;;;5090084;28;20446;-68
2023/04/04 11:20:21;;;;;;;4.17;2.50;;;13.00;39.30;;;;;;5090050;28;20526;-67
2023/04/04 11:22:49;;;;;;;5.37;2.67;;;13.20;38.30;;;;;;5089983;28;20441;-67
2023/04/04 11:25:25;;;;;;;2.50;2.30;;;13.30;38.50;;;;;;5088879;28;21005;-68
2023/04/04 11:27:55;;;;;;;2.60;2.40;;;13.10;38.00;;;;;;5089931;28;21271;-67
2023/04/04 11:30:21;;;;;;;3.87;2.37;;;13.20;36.80;;;;;;5089922;28;20438;-67
2023/04/04 11:32:47;;;;;;;4.70;2.87;;;13.20;37.30;;;;;;5089107;28;20518;-68
2023/04/04 11:35:14;;;;;;;6.50;2.47;;;13.30;37.50;;;;;;5090117;28;20479;-68
2023/04/04 11:37:59;;;;;;;3.27;2.60;;;13.50;39.30;;;;;;5089577;28;20452;-68
2023/04/04 11:40:40;;;;;;;4.67;3.10;;;13.40;38.30;;;;;;5089848;28;20462;-68
2023/04/04 11:43:10;;;;;;;4.83;3.00;;;14.00;39.30;;;;;;5089689;28;20435;-68
2023/04/04 11:45:42;;;;;;;5.33;3.13;;;13.90;37.50;;;;;;5089656;28;20430;-69
2023/04/04 11:48:08;;;;;;;4.23;2.73;;;13.80;37.20;;;;;;5088418;28;20554;-67
2023/04/04 11:50:48;;;;;;;5.63;3.53;;;13.30;37.30;;;;;;5088421;28;20513;-67
2023/04/04 11:53:14;;;;;;;2.53;2.33;;;13.30;36.30;;;;;;5089797;28;20294;-68
2023/04/04 11:55:46;;;;;;;4.60;2.50;;;13.70;37.50;;;;;;5089924;28;20513;-69
2023/04/04 11:58:15;;;;;;;9.13;3.20;;;14.10;39.40;;;;;;5089893;28;20185;-67
2023/04/04 12:00:42;;;;;;;6.67;3.43;;;14.20;37.80;;;;;;5089993;28;20485;-68
2023/04/04 12:03:11;;;;;;;8.87;2.90;;;13.90;37.90;;;;;;5088394;28;20450;-68
2023/04/04 12:05:42;;;;;;;4.00;2.97;;;13.70;36.90;;;;;;5089913;28;20835;-69
2023/04/04 12:08:09;;;;;;;11.77;3.03;;;14.00;39.10;;;;;;5089696;28;20408;-68
2023/04/04 12:10:37;;;;;;;3.40;2.57;;;14.10;38.50;;;;;;5089461;28;20431;-67
2023/04/04 12:13:07;;;;;;;5.57;3.20;;;14.10;38.20;;;;;;5089380;28;20888;-69
2023/04/04 12:15:34;;;;;;;7.13;3.10;;;13.40;38.20;;;;;;5089612;28;20430;-67
2023/04/04 12:18:01;;;;;;;4.97;2.67;;;13.60;39.30;;;;;;5089434;28;20427;-68
2023/04/04 12:20:27;;;;;;;8.47;2.60;;;13.90;38.70;;;;;;5070584;28;20562;-68
2023/04/04 12:22:53;;;;;;;5.60;3.20;;;13.70;36.30;;;;;;5088838;28;20961;-68
2023/04/04 12:25:23;;;;;;;3.50;2.93;;;13.70;35.40;;;;;;5088807;28;20455;-68
2023/04/04 12:27:50;;;;;;;6.40;2.60;;;14.20;35.20;;;;;;5088956;28;20176;-68
2023/04/04 12:30:17;;;;;;;7.10;3.43;;;14.40;37.50;;;;;;5087273;28;20504;-67
2023/04/04 12:32:48;;;;;;;5.90;3.17;;;14.30;36.60;;;;;;5088465;28;20468;-67
2023/04/04 12:35:14;;;;;;;4.07;2.40;;;14.00;36.90;;;;;;5088694;28;20600;-67
2023/04/04 12:38:06;;;;;;;6.20;3.20;;;14.00;37.20;;;;;;5087246;28;20450;-67
2023/04/04 12:40:35;;;;;;;6.50;2.60;;;14.00;36.60;;;;;;5088619;28;20460;-68
2023/04/04 12:43:06;;;;;;;21.17;3.80;;;14.20;37.60;;;;;;5088285;28;20885;-68
2023/04/04 12:45:36;;;;;;;3.80;3.23;;;14.40;38.70;;;;;;5087201;28;20779;-68
2023/04/04 12:48:11;;;;;;;6.47;2.80;;;14.50;37.70;;;;;;5088271;28;20502;-68
2023/04/04 12:50:51;;;;;;;2.90;2.30;;;14.50;34.00;;;;;;5088351;28;20510;-68
2023/04/04 12:53:22;;;;;;;10.50;2.60;;;14.50;35.80;;;;;;5086932;28;20470;-68